createdAt,value
2018-06-15T00:00:18.356Z,16.05
2018-06-15T00:02:51.760Z,14.00
2018-06-15T00:05:19.841Z,18.23
2018-06-15T00:07:47.900Z,14.70
2018-06-15T00:10:15.945Z,14.93
2018-06-15T00:12:44.009Z,14.87
2018-06-15T00:15:12.060Z,17.35
2018-06-15T00:17:40.124Z,17.57
2018-06-15T00:20:08.168Z,15.48
2018-06-15T00:22:36.220Z,18.73
2018-06-15T00:25:04.274Z,14.35
2018-06-15T00:27:32.351Z,16.42
2018-06-15T00:30:00.397Z,17.32
2018-06-15T00:32:28.461Z,16.32
2018-06-15T00:34:56.512Z,15.35
2018-06-15T00:37:24.555Z,16.42
2018-06-15T00:39:52.633Z,19.07
2018-06-15T00:42:20.680Z,15.25
2018-06-15T00:44:48.728Z,16.35
2018-06-15T00:47:16.784Z,17.32
2018-06-15T00:49:44.823Z,14.90
2018-06-15T00:52:12.876Z,15.18
2018-06-15T00:54:40.922Z,11.57
2018-06-15T00:57:20.484Z,15.78
2018-06-15T00:59:48.589Z,19.80
2018-06-15T01:02:16.663Z,14.43
2018-06-15T01:04:44.727Z,17.73
2018-06-15T01:07:12.800Z,21.37
2018-06-15T01:09:40.844Z,20.55
2018-06-15T01:12:08.913Z,14.78
2018-06-15T01:14:36.956Z,15.18
2018-06-15T01:17:05.005Z,17.37
2018-06-15T01:19:33.056Z,18.70
2018-06-15T01:22:01.092Z,21.52
2018-06-15T01:24:29.151Z,17.40
2018-06-15T01:26:57.220Z,15.98
2018-06-15T01:29:25.284Z,18.65
2018-06-15T01:31:53.320Z,16.93
2018-06-15T01:34:21.371Z,16.37
2018-06-15T01:36:49.409Z,18.77
2018-06-15T01:39:17.471Z,29.85
2018-06-15T01:41:45.504Z,14.30
2018-06-15T01:44:13.552Z,16.75
2018-06-15T01:46:41.596Z,12.10
2018-06-15T01:49:09.668Z,13.13
2018-06-15T01:51:37.707Z,15.45
2018-06-15T01:54:05.756Z,16.87
2018-06-15T01:56:33.804Z,12.93
2018-06-15T01:59:01.856Z,16.45
2018-06-15T02:01:29.949Z,18.37
2018-06-15T02:03:58.057Z,17.10
2018-06-15T02:06:26.093Z,21.12
2018-06-15T02:08:54.147Z,12.50
2018-06-15T02:11:23.795Z,18.42
2018-06-15T02:13:51.844Z,12.10
2018-06-15T02:16:19.956Z,16.42
2018-06-15T02:18:48.003Z,10.85
2018-06-15T02:21:16.044Z,16.30
2018-06-15T02:23:44.118Z,15.03
2018-06-15T02:26:12.202Z,19.17
2018-06-15T02:28:40.243Z,16.17
2018-06-15T02:31:08.280Z,12.10
2018-06-15T02:33:36.352Z,13.70
2018-06-15T02:36:04.407Z,19.40
2018-06-15T02:38:32.441Z,14.73
2018-06-15T02:41:00.519Z,10.68
2018-06-15T02:43:28.585Z,11.05
2018-06-15T02:45:56.620Z,14.98
2018-06-15T02:48:24.673Z,14.50
2018-06-15T02:50:52.724Z,13.00
2018-06-15T02:53:20.797Z,13.18
2018-06-15T02:55:48.841Z,13.25
2018-06-15T02:58:16.904Z,9.30
2018-06-15T03:00:44.963Z,15.03
2018-06-15T03:03:13.040Z,13.35
2018-06-15T03:05:41.248Z,12.47
2018-06-15T03:08:09.292Z,15.35
2018-06-15T03:10:37.419Z,10.40
2018-06-15T03:13:05.464Z,12.73
2018-06-15T03:15:33.523Z,13.20
2018-06-15T03:18:01.608Z,14.40
2018-06-15T03:20:29.668Z,11.25
2018-06-15T03:22:57.704Z,13.72
2018-06-15T03:25:25.794Z,13.32
2018-06-15T03:27:53.840Z,10.25
2018-06-15T03:30:21.888Z,19.40
2018-06-15T03:32:49.920Z,9.78
2018-06-15T03:35:17.977Z,13.18
2018-06-15T03:37:46.020Z,15.72
2018-06-15T03:40:14.088Z,21.20
2018-06-15T03:42:42.140Z,17.55
2018-06-15T03:45:10.193Z,11.93
2018-06-15T03:47:38.239Z,11.22
2018-06-15T03:50:06.304Z,13.95
2018-06-15T03:52:34.364Z,10.18
2018-06-15T03:55:02.424Z,12.47
2018-06-15T03:57:30.473Z,10.95
2018-06-15T03:59:58.530Z,11.63
2018-06-15T04:02:26.613Z,10.50
2018-06-15T04:04:54.668Z,16.45
2018-06-15T04:07:22.714Z,16.82
2018-06-15T04:09:50.760Z,12.25
2018-06-15T04:12:18.819Z,13.48
2018-06-15T04:14:46.966Z,11.43
2018-06-15T04:17:15.028Z,10.43
2018-06-15T04:19:43.112Z,17.17
2018-06-15T04:22:11.151Z,9.85
2018-06-15T04:24:39.220Z,16.23
2018-06-15T04:27:07.247Z,11.55
2018-06-15T04:29:35.441Z,12.73
2018-06-15T04:32:03.493Z,19.20
2018-06-15T04:34:31.561Z,8.58
2018-06-15T04:36:59.605Z,10.65
2018-06-15T04:39:27.664Z,11.33
2018-06-15T04:41:55.704Z,10.90
2018-06-15T04:44:23.764Z,11.80
2018-06-15T04:46:51.814Z,10.68
2018-06-15T04:49:19.865Z,12.82
2018-06-15T04:51:47.924Z,9.43
2018-06-15T04:54:15.980Z,15.13
2018-06-15T04:56:44.042Z,17.75
2018-06-15T04:59:12.079Z,16.80
2018-06-15T05:01:40.154Z,15.83
2018-06-15T05:04:08.195Z,11.97
2018-06-15T05:06:36.243Z,7.35
2018-06-15T05:09:06.980Z,12.47
2018-06-15T05:11:35.032Z,8.08
2018-06-15T05:14:03.073Z,8.25
2018-06-15T05:16:31.144Z,9.75
2018-06-15T05:18:59.193Z,13.13
2018-06-15T05:21:27.244Z,8.35
2018-06-15T05:23:55.284Z,9.18
2018-06-15T05:26:23.352Z,26.85
2018-06-15T05:28:51.420Z,10.40
2018-06-15T05:31:19.497Z,14.47
2018-06-15T05:33:47.539Z,9.78
2018-06-15T05:36:15.638Z,14.33
2018-06-15T05:38:43.722Z,8.78
2018-06-15T05:41:11.780Z,23.38
2018-06-15T05:43:39.828Z,27.17
2018-06-15T05:46:08.004Z,16.50
2018-06-15T05:48:36.060Z,7.90
2018-06-15T05:51:04.121Z,21.05
2018-06-15T05:53:32.261Z,14.58
2018-06-15T05:56:00.315Z,5.95
2018-06-15T05:58:28.377Z,4.95
2018-06-15T06:00:56.468Z,16.90
2018-06-15T06:03:24.540Z,6.72
2018-06-15T06:05:52.641Z,13.93
2018-06-15T06:08:21.183Z,7.33
2018-06-15T06:10:49.871Z,8.28
2018-06-15T06:13:18.305Z,8.60
2018-06-15T06:15:46.518Z,14.70
2018-06-15T06:18:14.582Z,26.07
2018-06-15T06:20:42.644Z,8.53
2018-06-15T06:23:10.708Z,16.95
2018-06-15T06:25:38.784Z,13.80
2018-06-15T06:28:06.836Z,9.33
2018-06-15T06:30:34.896Z,8.68
2018-06-15T06:33:02.961Z,8.35
2018-06-15T06:35:31.001Z,9.53
2018-06-15T06:37:59.079Z,10.05
2018-06-15T06:40:27.129Z,18.32
2018-06-15T06:42:55.198Z,6.87
2018-06-15T06:45:23.242Z,7.75
2018-06-15T06:47:51.324Z,19.42
2018-06-15T06:50:19.371Z,5.90
2018-06-15T06:52:47.441Z,10.60
2018-06-15T06:55:15.506Z,14.53
2018-06-15T06:57:43.597Z,8.18
2018-06-15T07:00:11.657Z,5.30
2018-06-15T07:02:39.761Z,8.20
2018-06-15T07:05:07.828Z,12.07
2018-06-15T07:07:35.881Z,5.72
2018-06-15T07:10:03.955Z,6.90
2018-06-15T07:12:32.004Z,7.22
2018-06-15T07:15:00.070Z,6.37
2018-06-15T07:17:28.124Z,10.20
2018-06-15T07:19:56.172Z,7.28
2018-06-15T07:22:24.229Z,6.20
2018-06-15T07:24:52.301Z,7.12
2018-06-15T07:27:20.893Z,9.70
2018-06-15T07:29:48.964Z,11.12
2018-06-15T07:32:17.037Z,10.75
2018-06-15T07:34:45.080Z,6.65
2018-06-15T07:37:13.157Z,8.55
2018-06-15T07:39:41.228Z,8.00
2018-06-15T07:42:09.306Z,8.43
2018-06-15T07:44:37.368Z,12.88
2018-06-15T07:47:05.452Z,8.83
2018-06-15T07:49:33.512Z,11.73
2018-06-15T07:52:01.632Z,11.05
2018-06-15T07:54:29.676Z,15.90
2018-06-15T07:56:57.738Z,15.78
2018-06-15T07:59:25.835Z,14.28
2018-06-15T08:01:53.868Z,13.75
2018-06-15T08:04:22.105Z,11.70
2018-06-15T08:06:50.293Z,16.35
2018-06-15T08:09:18.753Z,17.60
2018-06-15T08:11:46.817Z,16.48
2018-06-15T08:14:14.908Z,22.90
2018-06-15T08:16:42.985Z,19.02
2018-06-15T08:19:11.048Z,15.23
2018-06-15T08:21:39.096Z,18.23
2018-06-15T08:24:07.479Z,23.98
2018-06-15T08:26:35.607Z,30.77
2018-06-15T08:29:03.675Z,22.07
2018-06-15T08:31:31.749Z,19.32
2018-06-15T08:33:59.830Z,22.30
2018-06-15T08:36:27.910Z,20.77
2018-06-15T08:38:55.996Z,31.40
2018-06-15T08:41:24.052Z,24.45
2018-06-15T08:43:52.165Z,15.78
2018-06-15T08:46:20.206Z,15.53
2018-06-15T08:48:48.282Z,27.67
2018-06-15T08:51:16.316Z,21.93
2018-06-15T08:53:44.441Z,20.17
2018-06-15T08:56:12.537Z,27.67
2018-06-15T08:58:40.601Z,16.73
2018-06-15T09:01:08.648Z,18.85
2018-06-15T09:03:36.832Z,22.22
2018-06-15T09:06:04.888Z,14.80
2018-06-15T09:08:32.964Z,19.12
2018-06-15T09:11:01.020Z,23.90
2018-06-15T09:13:29.084Z,19.92
2018-06-15T09:15:57.154Z,23.38
2018-06-15T09:18:25.212Z,19.35
2018-06-15T09:20:53.299Z,23.73
2018-06-15T09:23:21.357Z,21.80
2018-06-15T09:25:50.052Z,23.02
2018-06-15T09:28:18.128Z,21.75
2018-06-15T09:30:46.238Z,24.40
2018-06-15T09:33:14.308Z,16.67
2018-06-15T09:35:42.359Z,19.95
2018-06-15T09:38:10.424Z,19.55
2018-06-15T09:40:38.477Z,22.75
2018-06-15T09:43:06.821Z,22.10
2018-06-15T09:45:35.126Z,22.93
2018-06-15T09:48:03.205Z,29.10
2018-06-15T09:50:31.290Z,24.50
2018-06-15T09:52:59.437Z,30.70
2018-06-15T09:55:27.428Z,26.95
2018-06-15T09:57:55.494Z,24.90
2018-06-15T10:00:29.028Z,31.17
2018-06-15T10:02:57.084Z,37.65
2018-06-15T10:05:25.128Z,32.45
2018-06-15T10:07:53.225Z,36.10
2018-06-15T10:10:21.288Z,49.08
2018-06-15T10:12:49.332Z,35.23
2018-06-15T10:15:17.395Z,33.33
2018-06-15T10:17:45.468Z,40.83
2018-06-15T10:20:13.526Z,27.80
2018-06-15T10:22:41.559Z,40.70
2018-06-15T10:25:09.635Z,54.67
2018-06-15T10:27:37.668Z,37.05
2018-06-15T10:30:05.774Z,53.30
2018-06-15T10:32:33.842Z,41.68
2018-06-15T10:35:01.904Z,45.05
2018-06-15T10:37:29.956Z,43.83
2018-06-15T10:39:58.000Z,36.05
2018-06-15T10:42:26.054Z,37.15
2018-06-15T10:44:54.117Z,38.17
2018-06-15T10:47:22.159Z,41.65
2018-06-15T10:49:50.244Z,30.20
2018-06-15T10:52:18.334Z,36.10
2018-06-15T10:54:46.396Z,29.23
2018-06-15T10:57:14.480Z,26.20
2018-06-15T10:59:42.548Z,33.60
2018-06-15T11:02:10.592Z,29.15
2018-06-15T11:04:38.660Z,28.85
2018-06-15T11:07:06.764Z,31.15
2018-06-15T11:09:34.839Z,31.05
2018-06-15T11:12:02.899Z,29.92
2018-06-15T11:14:30.972Z,28.62
2018-06-15T11:16:59.044Z,28.80
2018-06-15T11:19:27.095Z,25.68
2018-06-15T11:21:55.147Z,28.65
2018-06-15T11:24:23.258Z,25.68
2018-06-15T11:26:51.295Z,28.85
2018-06-15T11:29:19.393Z,22.70
2018-06-15T11:31:47.462Z,23.70
2018-06-15T11:34:15.521Z,23.18
2018-06-15T11:36:43.569Z,29.50
2018-06-15T11:39:11.712Z,34.00
2018-06-15T11:41:39.757Z,41.23
2018-06-15T11:44:07.806Z,42.30
2018-06-15T11:46:35.973Z,40.78
2018-06-15T11:49:04.108Z,46.95
2018-06-15T11:51:32.238Z,49.75
2018-06-15T11:54:00.280Z,40.98
2018-06-15T11:56:28.378Z,42.23
2018-06-15T11:58:56.449Z,66.57
2018-06-15T12:01:24.516Z,63.65
2018-06-15T12:03:52.684Z,48.50
2018-06-15T12:06:20.760Z,45.80
2018-06-15T12:08:48.816Z,41.13
2018-06-15T12:11:16.884Z,63.65
2018-06-15T12:13:44.952Z,71.22
2018-06-15T12:16:12.996Z,60.15
2018-06-15T12:18:41.092Z,56.23
2018-06-15T12:21:09.137Z,48.42
2018-06-15T12:23:37.244Z,57.73
2018-06-15T12:26:05.548Z,67.75
2018-06-15T12:28:33.649Z,52.30
2018-06-15T12:31:01.768Z,48.60
2018-06-15T12:33:29.822Z,48.78
2018-06-15T12:35:57.973Z,53.90
2018-06-15T12:38:26.073Z,64.62
2018-06-15T12:40:54.129Z,42.73
2018-06-15T12:43:22.177Z,50.33
2018-06-15T12:45:50.448Z,61.58
2018-06-15T12:48:18.496Z,69.42
2018-06-15T12:50:46.560Z,56.83
2018-06-15T12:53:14.696Z,56.65
2018-06-15T12:55:42.772Z,54.00
2018-06-15T12:58:10.813Z,68.97
2018-06-15T13:00:38.867Z,78.45
2018-06-15T13:03:06.966Z,89.05
2018-06-15T13:05:35.015Z,95.03
2018-06-15T13:08:03.187Z,52.50
2018-06-15T13:10:31.291Z,72.20
2018-06-15T13:12:59.381Z,57.15
2018-06-15T13:15:27.433Z,82.47
2018-06-15T13:17:55.543Z,71.25
2018-06-15T13:20:23.553Z,87.70
2018-06-15T13:22:51.720Z,124.05
2018-06-15T13:25:19.813Z,68.35
2018-06-15T13:27:47.885Z,67.12
2018-06-15T13:30:15.948Z,76.10
2018-06-15T13:32:44.008Z,68.62
2018-06-15T13:35:12.093Z,53.50
2018-06-15T13:37:40.204Z,60.17
2018-06-15T13:40:08.264Z,59.67
2018-06-15T13:42:36.310Z,69.05
2018-06-15T13:45:04.403Z,36.35
2018-06-15T13:47:32.470Z,40.23
2018-06-15T13:50:00.520Z,34.53
2018-06-15T13:52:28.580Z,45.05
2018-06-15T13:54:56.630Z,31.42
2018-06-15T13:57:24.680Z,39.65
2018-06-15T13:59:52.728Z,45.30
2018-06-15T14:02:20.800Z,34.55
2018-06-15T14:04:48.837Z,31.85
2018-06-15T14:07:17.260Z,32.25
2018-06-15T14:09:45.421Z,51.53
2018-06-15T14:12:13.472Z,40.65
2018-06-15T14:14:41.522Z,33.13
2018-06-15T14:17:09.591Z,41.23
2018-06-15T14:19:37.656Z,39.35
2018-06-15T14:22:05.732Z,33.63
2018-06-15T14:24:33.777Z,33.55
2018-06-15T14:27:01.840Z,38.38
2018-06-15T14:29:29.899Z,41.23
2018-06-15T14:31:57.960Z,37.28
2018-06-15T14:34:26.045Z,38.58
2018-06-15T14:36:54.169Z,38.50
2018-06-15T14:39:22.228Z,37.40
2018-06-15T14:41:51.345Z,40.70
2018-06-15T14:44:19.415Z,39.23
2018-06-15T14:46:47.485Z,49.90
2018-06-15T14:49:15.520Z,37.10
2018-06-15T14:51:43.576Z,44.18
2018-06-15T14:54:11.640Z,36.48
2018-06-15T14:56:39.756Z,50.83
2018-06-15T14:59:07.821Z,31.55
2018-06-15T15:01:35.881Z,40.43
2018-06-15T15:04:03.937Z,51.92
2018-06-15T15:06:31.991Z,36.77
2018-06-15T15:09:00.057Z,34.20
2018-06-15T15:11:28.116Z,38.53
2018-06-15T15:13:56.184Z,36.35
2018-06-15T15:16:24.285Z,41.80
2018-06-15T15:18:52.344Z,32.42
2018-06-15T15:21:20.432Z,47.40
2018-06-15T15:23:48.460Z,35.83
2018-06-15T15:26:16.516Z,46.18
2018-06-15T15:28:44.643Z,41.55
2018-06-15T15:31:12.705Z,30.37
2018-06-15T15:33:40.794Z,63.80
2018-06-15T15:36:08.913Z,39.80
2018-06-15T15:38:37.027Z,28.23
2018-06-15T15:41:05.120Z,32.23
2018-06-15T15:43:33.193Z,32.48
2018-06-15T15:46:01.221Z,37.50
2018-06-15T15:48:29.281Z,32.15
2018-06-15T15:50:57.333Z,33.88
2018-06-15T15:53:25.648Z,31.97
2018-06-15T15:55:53.687Z,37.78
2018-06-15T15:58:22.291Z,34.35
2018-06-15T16:00:50.337Z,36.00
2018-06-15T16:03:18.387Z,39.03
2018-06-15T16:05:46.432Z,40.35
2018-06-15T16:08:14.492Z,32.28
2018-06-15T16:10:42.544Z,24.90
2018-06-15T16:13:10.646Z,25.85
2018-06-15T16:15:38.650Z,36.15
2018-06-15T16:18:06.716Z,35.03
2018-06-15T16:20:34.752Z,28.32
2018-06-15T16:23:02.811Z,26.48
2018-06-15T16:25:30.880Z,23.75
2018-06-15T16:27:58.940Z,34.08
2018-06-15T16:30:26.977Z,31.20
2018-06-15T16:32:55.034Z,33.58
2018-06-15T16:35:23.096Z,36.73
2018-06-15T16:37:51.352Z,38.50
2018-06-15T16:40:19.392Z,37.80
2018-06-15T16:42:47.479Z,41.08
2018-06-15T16:45:15.525Z,39.20
2018-06-15T16:47:43.587Z,28.62
2018-06-15T16:50:11.629Z,38.92
2018-06-15T16:52:39.676Z,30.62
2018-06-15T16:55:07.727Z,56.05
2018-06-15T16:57:35.776Z,41.68
2018-06-15T17:00:03.870Z,55.67
2018-06-15T17:02:31.977Z,35.78
2018-06-15T17:04:59.997Z,34.13
2018-06-15T17:07:28.128Z,30.57
2018-06-15T17:09:56.224Z,37.90
2018-06-15T17:12:24.256Z,30.52
2018-06-15T17:14:52.304Z,32.17
2018-06-15T17:17:20.346Z,28.65
2018-06-15T17:19:48.408Z,43.48
2018-06-15T17:22:16.461Z,29.72
2018-06-15T17:24:44.536Z,29.52
2018-06-15T17:27:12.620Z,47.55
2018-06-15T17:29:40.703Z,35.73
2018-06-15T17:32:08.752Z,24.47
2018-06-15T17:34:36.812Z,31.15
2018-06-15T17:37:05.071Z,31.68
2018-06-15T17:40:00.762Z,28.32
2018-06-15T17:42:28.929Z,21.62
2018-06-15T17:44:57.040Z,25.25
2018-06-15T17:47:25.089Z,22.73
2018-06-15T17:49:53.147Z,25.23
2018-06-15T17:52:21.200Z,30.68
2018-06-15T17:54:49.264Z,33.40
2018-06-15T17:57:17.321Z,24.37
2018-06-15T17:59:45.401Z,35.55
2018-06-15T18:02:13.473Z,49.48
2018-06-15T18:04:41.540Z,25.92
2018-06-15T18:07:09.622Z,30.30
2018-06-15T18:09:37.707Z,36.77
2018-06-15T18:12:07.754Z,26.68
2018-06-15T18:14:35.938Z,24.95
2018-06-15T18:17:04.005Z,25.15
2018-06-15T18:19:32.086Z,30.48
2018-06-15T18:22:00.180Z,37.15
2018-06-15T18:24:28.320Z,39.80
2018-06-15T18:26:56.416Z,28.38
2018-06-15T18:29:24.508Z,28.52
2018-06-15T18:31:52.624Z,32.70
2018-06-15T18:34:20.864Z,24.82
2018-06-15T18:36:48.959Z,24.25
2018-06-15T18:39:17.063Z,32.05
2018-06-15T18:41:45.332Z,37.93
2018-06-15T18:44:13.863Z,25.43
2018-06-15T18:46:41.944Z,27.70
2018-06-15T18:49:10.845Z,20.90
2018-06-15T18:51:39.501Z,24.12
2018-06-15T18:54:07.576Z,25.88
2018-06-15T18:56:35.630Z,22.00
2018-06-15T18:59:03.725Z,18.17
2018-06-15T19:01:32.890Z,17.17
2018-06-15T19:04:01.051Z,19.50
2018-06-15T19:06:29.108Z,19.42
2018-06-15T19:08:57.185Z,20.12
2018-06-15T19:11:25.248Z,18.70
2018-06-15T19:13:54.339Z,18.15
2018-06-15T19:16:22.396Z,17.10
2018-06-15T19:18:51.351Z,13.80
2018-06-15T19:21:21.417Z,22.65
2018-06-15T19:23:51.238Z,26.93
2018-06-15T19:26:19.538Z,17.57
2018-06-15T19:28:50.834Z,25.23
2018-06-15T19:31:21.888Z,19.00
2018-06-15T19:33:51.212Z,21.55
2018-06-15T19:36:21.453Z,22.70
2018-06-15T19:38:50.847Z,11.50
2018-06-15T19:41:26.260Z,16.97
2018-06-15T19:43:54.338Z,17.35
2018-06-15T19:46:23.365Z,19.52
2018-06-15T19:48:52.562Z,15.10
2018-06-15T19:51:23.060Z,22.42
2018-06-15T19:53:53.076Z,28.75
2018-06-15T19:56:22.784Z,17.30
2018-06-15T19:58:51.837Z,16.02
2018-06-15T20:01:20.644Z,17.57
2018-06-15T20:03:49.536Z,14.50
2018-06-15T20:06:17.670Z,16.05
2018-06-15T20:08:45.728Z,11.05
2018-06-15T20:11:13.809Z,13.62
2018-06-15T20:13:42.097Z,20.37
2018-06-15T20:16:10.172Z,17.98
2018-06-15T20:18:39.410Z,10.05
2018-06-15T20:21:07.521Z,13.05
2018-06-15T20:23:36.402Z,9.58
2018-06-15T20:26:04.503Z,14.33
2018-06-15T20:28:32.565Z,12.82
2018-06-15T20:31:00.689Z,12.35
2018-06-15T20:33:28.785Z,13.38
2018-06-15T20:35:56.855Z,17.80
2018-06-15T20:38:24.924Z,12.07
2018-06-15T20:40:53.027Z,13.98
2018-06-15T20:43:21.094Z,17.02
2018-06-15T20:45:49.150Z,22.52
2018-06-15T20:48:17.205Z,14.43
2018-06-15T20:50:45.291Z,11.40
2018-06-15T20:53:13.385Z,10.98
2018-06-15T20:55:41.429Z,11.60
2018-06-15T20:58:09.506Z,11.95
2018-06-15T21:00:37.596Z,12.20
2018-06-15T21:03:05.652Z,13.95
2018-06-15T21:05:33.737Z,10.03
2018-06-15T21:08:01.824Z,8.48
2018-06-15T21:10:29.900Z,17.40
2018-06-15T21:12:57.960Z,8.40
2018-06-15T21:15:26.028Z,10.70
2018-06-15T21:17:54.077Z,11.57
2018-06-15T21:20:22.129Z,18.20
2018-06-15T21:22:50.189Z,13.80
2018-06-15T21:25:18.259Z,19.75
2018-06-15T21:27:46.347Z,12.85
2018-06-15T21:30:14.400Z,14.10
2018-06-15T21:32:42.489Z,8.30
2018-06-15T21:35:10.545Z,15.05
2018-06-15T21:37:38.603Z,8.50
2018-06-15T21:40:06.659Z,9.33
2018-06-15T21:42:34.776Z,5.85
2018-06-15T21:45:02.777Z,7.28
2018-06-15T21:47:30.824Z,6.90
2018-06-15T21:49:58.868Z,7.95
2018-06-15T21:52:26.948Z,11.53
2018-06-15T21:54:55.123Z,10.03
2018-06-15T21:57:23.224Z,8.65
2018-06-15T21:59:51.272Z,12.53
2018-06-15T22:02:19.336Z,13.65
2018-06-15T22:04:47.400Z,14.40
2018-06-15T22:07:15.466Z,21.15
2018-06-15T22:09:43.516Z,10.72
2018-06-15T22:12:11.588Z,11.68
2018-06-15T22:14:39.632Z,8.15
2018-06-15T22:17:07.709Z,8.30
2018-06-15T22:20:00.637Z,11.00
2018-06-15T22:22:28.855Z,12.98
2018-06-15T22:24:56.916Z,9.98
2018-06-15T22:27:25.019Z,9.73
2018-06-15T22:29:53.057Z,6.00
2018-06-15T22:32:21.145Z,6.20
2018-06-15T22:34:49.185Z,7.83
2018-06-15T22:37:17.244Z,7.78
2018-06-15T22:39:45.417Z,8.08
2018-06-15T22:42:13.482Z,7.42
2018-06-15T22:44:41.565Z,6.42
2018-06-15T22:47:09.645Z,6.35
2018-06-15T22:49:37.697Z,6.95
2018-06-15T22:52:05.929Z,5.78
2018-06-15T22:54:34.065Z,10.10
2018-06-15T22:57:02.114Z,6.90
2018-06-15T22:59:30.165Z,10.72
2018-06-15T23:01:58.251Z,12.00
2018-06-15T23:04:26.321Z,5.78
2018-06-15T23:06:54.381Z,10.10
2018-06-15T23:09:22.464Z,11.68
2018-06-15T23:11:50.597Z,7.80
2018-06-15T23:14:18.664Z,6.62
2018-06-15T23:16:46.736Z,7.90
2018-06-15T23:19:14.777Z,10.48
2018-06-15T23:21:42.848Z,7.45
2018-06-15T23:24:10.901Z,8.95
2018-06-15T23:26:38.992Z,6.58
2018-06-15T23:29:07.048Z,5.83
2018-06-15T23:31:35.113Z,7.28
2018-06-15T23:34:03.175Z,9.83
2018-06-15T23:36:31.232Z,7.67
2018-06-15T23:38:59.276Z,6.42
2018-06-15T23:41:27.327Z,5.92
2018-06-15T23:43:55.461Z,7.62
2018-06-15T23:46:23.520Z,9.78
2018-06-15T23:48:51.589Z,6.55
2018-06-15T23:51:19.674Z,16.25
2018-06-15T23:53:47.767Z,6.55
2018-06-15T23:56:15.814Z,8.75
2018-06-15T23:58:43.868Z,8.95
